Terminal Aerodrome Forecast
Issued by NWS

Home | Current Version | Previous Version | Text Only | Print | Product List | Glossary On
Versions: 1 2 3 4 5 6 7 8 9 10 11 12 13 14 15 16 17
000
FTUS44 KEPZ 220500
TAFLRU
TAF
KLRU 220520Z 2206/2306 VRB05KT P6SM FEW050 SCT100 BKN250
     FM221500 VRB05KT P6SM FEW050 SCT100
     FM222000 16007KT P6SM FEW070 FEW250=

USA.gov is the U.S. government's official web portal to all federal, state and local government web resources and services.